Pagrindinis puslapis
METAR-TAF:

METAR-TAF

Oro uostai :

Kordoba, Argentina

platuma: 31-19S, ilguma: 064-13W, Aukštis: 484 m

Dabartinis oras

Ataskaita buvo paskelbta 1 valandą ir 6 minutes, ne 21:00 UTC
Vėjas 6 kt iš Pietryčių
Temperatūra 18°C
Drėgmė 16%
Slėgis 1022 hPa
Matomumas 10 km arba daugiau
nėra debesų žemiau 1500 m ir nėra kamuolinių lietaus debesų

METAR: SACO 162100Z 14006KT CAVOK 18/M08 Q1022 NOSIG

Laikas: 19:06 (22:06 UTC)

Prognozė

Ataskaita buvo paskelbta 11 valandos ir 6 minutes, ne 11:00 UTC
Prognozė galioja nuo 16 metu 12 UTC su 17 metu 12 UTC
Vėjas 15 kt iš Pietų/Pietvakarių
Matomumas: 7000 m
Išsisklaidę debesys ne aukštis 2000 ft
Apsiniaukę ne aukštis 4000 ft
lietus
Tapsmas
nuo 16 metu 14 UTC su 16 metu 16 UTC
Vėjas 15 kt iš Pietų
Matomumas 10 km arba daugiau
nėra debesų žemiau 1500 m ir nėra kamuolinių lietaus debesų
Tapsmas
nuo 16 metu 23 UTC su 17 metu 01 UTC
Vėjas 5 kt iš Vakarų/Šiaurės Vakarų

TAF: SACO 161100Z 1612/1712 20015KT 7000 -SHRA SCT020 OVC040 TX20/1618Z TN08/1710Z BECMG 1614/1616 18015KT CAVOK BECMG 1623/1701 30005KT

Orai ataskaitas ir orų prognozės (METAR, TAF).

turimą stotys yra geltonos ir raudonos taškus žemėlapyje.

Perkelti pele per norėdami pamatyti stoties vardą.

Tada spustelėkite, norėdami matyti oro stebėjimo ir prognozės.

Norėdami pakeisti žemėlapį: spustelėkite ant žalios mygtukų su juodo kryžiaus žemyn,; žalią mygtuką su brūkšneliu, jei norite nutolinti; arba žalių rodyklių gretimoms žemėlapius.


METAR-TAF: